Terminal Aerodrome Forecast
Issued by NWS

Home | Current Version | Previous Version | Text Only | Print | Product List | Glossary On
Versions: 1 2 3 4 5 6 7 8 9 10 11 12 13 14 15
000
FTUS45 KTFX 292320
TAFGTF
TAF
KGTF 292320Z 3000/3024 24011G21KT P6SM FEW090
     FM300200 21007KT P6SM SKC
     FM302000 24011KT P6SM SKC=

USA.gov is the U.S. government's official web portal to all federal, state and local government web resources and services.